createdAt,value
2017-12-01T00:00:31.848Z,2.10
2017-12-01T00:02:59.818Z,2.20
2017-12-01T00:05:27.527Z,2.40
2017-12-01T00:07:56.268Z,2.40
2017-12-01T00:10:23.960Z,2.50
2017-12-01T00:12:51.731Z,2.50
2017-12-01T00:15:18.657Z,2.70
2017-12-01T00:17:47.065Z,2.80
2017-12-01T00:20:14.827Z,2.80
2017-12-01T00:22:43.160Z,2.90
2017-12-01T00:25:10.298Z,2.90
2017-12-01T00:27:37.228Z,2.90
2017-12-01T00:30:04.455Z,2.80
2017-12-01T00:32:36.990Z,2.80
2017-12-01T00:35:04.818Z,2.80
2017-12-01T00:37:33.765Z,2.80
2017-12-01T00:40:01.586Z,2.60
2017-12-01T00:42:29.247Z,2.60
2017-12-01T00:44:56.196Z,2.60
2017-12-01T00:47:23.104Z,2.70
2017-12-01T00:49:49.959Z,2.70
2017-12-01T00:52:22.033Z,2.80
2017-12-01T00:54:49.934Z,2.80
2017-12-01T00:57:16.862Z,2.90
2017-12-01T00:59:43.958Z,2.90
2017-12-01T01:02:10.877Z,2.90
2017-12-01T01:04:37.715Z,2.70
2017-12-01T01:07:09.878Z,2.60
2017-12-01T01:09:37.763Z,2.50
2017-12-01T01:12:05.198Z,2.50
2017-12-01T01:14:35.543Z,2.50
2017-12-01T01:17:09.564Z,2.50
2017-12-01T01:19:36.490Z,2.40
2017-12-01T01:22:07.175Z,2.30
2017-12-01T01:24:37.451Z,2.20
2017-12-01T01:27:05.504Z,2.20
2017-12-01T01:29:33.100Z,2.00
2017-12-01T01:32:05.306Z,2.00
2017-12-01T01:34:32.218Z,2.00
2017-12-01T01:37:04.412Z,2.00
2017-12-01T01:39:32.262Z,2.00
2017-12-01T01:41:59.232Z,2.00
2017-12-01T01:44:26.629Z,2.00
2017-12-01T01:47:00.248Z,2.00
2017-12-01T01:49:27.626Z,2.00
2017-12-01T01:51:55.011Z,1.90
2017-12-01T01:54:29.464Z,1.90
2017-12-01T01:56:56.424Z,1.80
2017-12-01T01:59:31.760Z,1.80
2017-12-01T02:02:05.718Z,1.80
2017-12-01T02:04:33.759Z,1.80
2017-12-01T02:07:01.036Z,1.90
2017-12-01T02:09:35.252Z,1.80
2017-12-01T02:12:07.703Z,1.80
2017-12-01T02:14:39.722Z,1.90
2017-12-01T02:17:11.975Z,1.90
2017-12-01T02:19:40.723Z,1.90
2017-12-01T02:22:12.775Z,1.80
2017-12-01T02:24:40.522Z,1.80
2017-12-01T02:27:07.389Z,1.90
2017-12-01T02:29:34.260Z,1.90
2017-12-01T02:32:01.532Z,1.80
2017-12-01T02:34:33.686Z,1.80
2017-12-01T02:37:02.778Z,1.80
2017-12-01T02:39:30.040Z,1.70
2017-12-01T02:42:03.557Z,1.70
2017-12-01T02:44:30.597Z,1.60
2017-12-01T02:46:58.173Z,1.60
2017-12-01T02:49:25.119Z,1.60
2017-12-01T02:51:57.752Z,1.60
2017-12-01T02:54:26.339Z,1.50
2017-12-01T02:56:53.273Z,1.50
2017-12-01T02:59:27.066Z,1.50
2017-12-01T03:01:53.969Z,1.50
2017-12-01T03:04:21.166Z,1.40
2017-12-01T03:06:53.244Z,1.40
2017-12-01T03:09:20.987Z,1.40
2017-12-01T03:11:48.038Z,1.40
2017-12-01T03:14:20.623Z,1.50
2017-12-01T03:16:48.492Z,1.50
2017-12-01T03:19:24.066Z,1.50
2017-12-01T03:21:56.302Z,1.50
2017-12-01T03:24:23.855Z,1.50
2017-12-01T03:26:51.297Z,1.50
2017-12-01T03:29:18.936Z,1.50
2017-12-01T03:31:45.919Z,1.50
2017-12-01T03:34:13.615Z,1.90
2017-12-01T03:36:44.034Z,2.00
2017-12-01T03:39:17.028Z,2.00
2017-12-01T03:41:44.206Z,2.10
2017-12-01T03:44:16.459Z,1.80
2017-12-01T03:46:43.461Z,1.60
2017-12-01T03:49:11.180Z,1.40
2017-12-01T03:51:38.842Z,1.40
2017-12-01T03:54:06.809Z,1.30
2017-12-01T03:56:33.798Z,1.30
2017-12-01T03:59:01.527Z,1.30
2017-12-01T04:01:28.523Z,1.30
2017-12-01T04:03:56.201Z,1.30
2017-12-01T04:06:23.206Z,1.40
2017-12-01T04:08:51.239Z,1.40
2017-12-01T04:11:19.776Z,1.20
2017-12-01T04:13:47.424Z,1.10
2017-12-01T04:16:15.473Z,1.10
2017-12-01T04:18:42.512Z,1.10
2017-12-01T04:21:10.182Z,1.10
2017-12-01T04:23:37.131Z,1.10
2017-12-01T04:26:05.192Z,1.10
2017-12-01T04:28:32.152Z,1.10
2017-12-01T04:30:59.444Z,1.00
2017-12-01T04:33:26.339Z,1.00
2017-12-01T04:35:54.983Z,1.10
2017-12-01T04:38:22.100Z,1.10
2017-12-01T04:40:52.156Z,1.10
2017-12-01T04:43:19.935Z,1.20
2017-12-01T04:45:47.621Z,1.20
2017-12-01T04:48:15.780Z,1.20
2017-12-01T04:50:42.794Z,1.30
2017-12-01T04:53:10.035Z,1.40
2017-12-01T04:55:36.937Z,1.50
2017-12-01T04:58:09.403Z,1.20
2017-12-01T05:00:37.712Z,1.00
2017-12-01T05:03:05.328Z,1.00
2017-12-01T05:05:32.499Z,1.00
2017-12-01T05:08:01.124Z,1.00
2017-12-01T05:10:28.949Z,1.10
2017-12-01T05:12:57.223Z,1.10
2017-12-01T05:15:29.369Z,1.00
2017-12-01T05:17:56.352Z,1.10
2017-12-01T05:20:24.428Z,1.30
2017-12-01T05:22:51.996Z,1.20
2017-12-01T05:25:19.578Z,1.40
2017-12-01T05:27:47.172Z,1.50
2017-12-01T05:30:17.408Z,1.50
2017-12-01T05:32:45.409Z,1.30
2017-12-01T05:35:12.774Z,1.20
2017-12-01T05:37:41.248Z,1.00
2017-12-01T05:40:09.065Z,1.00
2017-12-01T05:42:37.179Z,1.10
2017-12-01T05:45:04.248Z,1.10
2017-12-01T05:47:37.084Z,1.20
2017-12-01T05:50:04.032Z,1.30
2017-12-01T05:52:32.887Z,1.40
2017-12-01T05:55:00.026Z,1.40
2017-12-01T05:57:26.978Z,1.60
2017-12-01T05:59:59.316Z,1.60
2017-12-01T06:02:29.724Z,1.40
2017-12-01T06:05:07.710Z,1.10
2017-12-01T06:07:41.375Z,1.00
2017-12-01T06:10:09.397Z,1.00
2017-12-01T06:12:41.593Z,1.10
2017-12-01T06:15:10.071Z,1.20
2017-12-01T06:17:37.912Z,1.40
2017-12-01T06:20:05.210Z,1.40
2017-12-01T06:22:32.255Z,1.40
2017-12-01T06:25:01.929Z,1.50
2017-12-01T06:27:29.744Z,1.40
2017-12-01T06:29:57.958Z,1.30
2017-12-01T06:32:36.685Z,1.30
2017-12-01T06:35:14.895Z,1.30
2017-12-01T06:37:47.956Z,1.20
2017-12-01T06:40:20.223Z,1.20
2017-12-01T06:42:53.071Z,1.40
2017-12-01T06:51:08.101Z,1.50
2017-12-01T06:53:36.187Z,1.60
2017-12-01T06:56:03.206Z,1.60
2017-12-01T06:58:31.009Z,1.60
2017-12-01T07:00:58.246Z,1.60
2017-12-01T07:03:26.778Z,1.70
2017-12-01T07:05:57.469Z,1.70
2017-12-01T07:08:24.599Z,1.70
2017-12-01T07:10:54.027Z,1.70
2017-12-01T07:13:26.014Z,1.70
2017-12-01T07:15:58.470Z,1.80
2017-12-01T07:18:25.463Z,1.80
2017-12-01T07:20:52.798Z,1.80
2017-12-01T07:23:20.459Z,1.80
2017-12-01T07:25:47.480Z,1.80
2017-12-01T07:28:14.710Z,1.80
2017-12-01T07:30:41.924Z,1.80
2017-12-01T07:33:14.184Z,1.80
2017-12-01T07:35:41.283Z,1.90
2017-12-01T07:38:09.799Z,1.90
2017-12-01T07:40:36.749Z,1.90
2017-12-01T07:43:07.790Z,2.00
2017-12-01T07:45:39.962Z,1.90
2017-12-01T07:48:12.619Z,1.90
2017-12-01T07:50:40.301Z,1.90
2017-12-01T07:53:07.260Z,1.90
2017-12-01T07:55:39.380Z,1.90
2017-12-01T07:58:06.391Z,1.90
2017-12-01T08:03:14.239Z,1.80
2017-12-01T08:05:46.444Z,1.80
2017-12-01T08:08:15.990Z,1.80
2017-12-01T08:10:48.963Z,1.80
2017-12-01T08:13:17.219Z,1.90
2017-12-01T08:16:02.972Z,1.90
2017-12-01T08:18:52.211Z,2.00
2017-12-01T08:34:49.829Z,2.00
2017-12-01T08:37:16.676Z,1.90
2017-12-01T08:39:43.480Z,1.90
2017-12-01T08:42:10.342Z,2.00
2017-12-01T08:44:37.156Z,2.00
2017-12-01T08:47:04.016Z,2.00
2017-12-01T08:49:30.912Z,2.00
2017-12-01T08:51:58.503Z,2.00
2017-12-01T08:54:26.080Z,2.00
2017-12-01T08:56:53.661Z,2.10
2017-12-01T08:59:20.533Z,2.10
2017-12-01T09:01:47.427Z,2.10
2017-12-01T09:04:14.224Z,2.20
2017-12-01T09:06:41.835Z,2.20
2017-12-01T09:09:08.722Z,2.20
2017-12-01T09:11:35.560Z,2.20
2017-12-01T09:14:02.432Z,2.30
2017-12-01T09:16:29.288Z,2.30
2017-12-01T09:18:56.135Z,2.30
2017-12-01T09:21:23.015Z,2.30
2017-12-01T09:23:49.882Z,2.30
2017-12-01T09:26:16.782Z,2.30
2017-12-01T09:28:43.895Z,2.40
2017-12-01T09:31:10.732Z,2.40
2017-12-01T09:33:38.314Z,2.40
2017-12-01T09:36:05.880Z,2.40
2017-12-01T09:38:32.759Z,2.40
2017-12-01T09:41:00.390Z,2.50
2017-12-01T09:43:27.282Z,2.50
2017-12-01T09:45:54.219Z,2.50
2017-12-01T09:48:21.161Z,2.50
2017-12-01T09:50:48.031Z,2.50
2017-12-01T09:53:14.891Z,2.60
2017-12-01T09:55:41.762Z,2.60
2017-12-01T09:58:08.588Z,2.60
2017-12-01T10:00:35.522Z,2.60
2017-12-01T10:03:03.164Z,2.60
2017-12-01T10:05:30.011Z,2.60
2017-12-01T10:07:56.866Z,2.60
2017-12-01T10:10:23.687Z,2.60
2017-12-01T10:12:51.296Z,2.70
2017-12-01T10:15:18.155Z,2.70
2017-12-01T10:17:44.984Z,2.70
2017-12-01T10:20:12.597Z,2.90
2017-12-01T10:22:39.451Z,2.90
2017-12-01T10:25:06.296Z,2.90
2017-12-01T10:27:33.903Z,2.70
2017-12-01T10:30:00.768Z,2.70
2017-12-01T10:32:27.607Z,2.40
2017-12-01T10:34:54.498Z,2.40
2017-12-01T10:37:21.342Z,2.40
2017-12-01T10:39:48.191Z,2.40
2017-12-01T10:42:15.009Z,2.40
2017-12-01T10:44:41.894Z,2.30
2017-12-01T10:47:09.503Z,2.30
2017-12-01T10:49:36.351Z,2.20
2017-12-01T10:52:03.240Z,2.20
2017-12-01T10:54:30.077Z,2.30
2017-12-01T10:56:56.906Z,2.20
2017-12-01T10:59:23.808Z,2.20
2017-12-01T11:01:50.689Z,2.30
2017-12-01T11:04:17.530Z,2.20
2017-12-01T11:06:44.370Z,2.30
2017-12-01T11:09:11.951Z,2.30
2017-12-01T11:11:39.531Z,2.40
2017-12-01T11:14:07.092Z,2.40
2017-12-01T11:16:33.942Z,2.40
2017-12-01T11:19:00.795Z,2.40
2017-12-01T11:21:27.656Z,2.40
2017-12-01T11:23:54.501Z,2.40
2017-12-01T11:26:21.331Z,2.40
2017-12-01T11:28:48.169Z,2.40
2017-12-01T11:31:15.716Z,2.40
2017-12-01T11:33:42.586Z,2.40
2017-12-01T11:36:09.397Z,2.50
2017-12-01T11:38:36.228Z,2.50
2017-12-01T11:41:03.816Z,2.60
2017-12-01T11:43:31.418Z,2.70
2017-12-01T11:45:58.228Z,2.60
2017-12-01T11:48:25.093Z,2.60
2017-12-01T11:50:52.674Z,2.80
2017-12-01T11:53:19.602Z,2.70
2017-12-01T11:55:46.498Z,2.80
2017-12-01T11:58:13.364Z,2.80
2017-12-01T12:00:44.058Z,2.80
2017-12-01T12:03:10.942Z,2.80
2017-12-01T12:05:37.828Z,2.80
2017-12-01T12:08:04.774Z,2.90
2017-12-01T12:10:31.666Z,2.90
2017-12-01T12:12:58.607Z,2.80
2017-12-01T12:15:25.522Z,2.80
2017-12-01T12:17:52.443Z,2.80
2017-12-01T12:20:19.336Z,2.80
2017-12-01T12:22:46.988Z,2.80
2017-12-01T12:25:14.005Z,2.80
2017-12-01T12:27:40.894Z,2.80
2017-12-01T12:30:07.797Z,2.80
2017-12-01T12:32:35.712Z,2.80
2017-12-01T12:35:02.636Z,2.70
2017-12-01T12:37:29.547Z,2.80
2017-12-01T12:39:56.448Z,2.80
2017-12-01T12:42:23.368Z,2.80
2017-12-01T12:44:51.055Z,2.90
2017-12-01T12:47:18.047Z,2.90
2017-12-01T12:49:45.020Z,2.90
2017-12-01T12:52:12.112Z,2.90
2017-12-01T12:54:39.865Z,3.00
2017-12-01T12:57:06.895Z,2.90
2017-12-01T12:59:33.835Z,2.90
2017-12-01T13:02:00.869Z,2.90
2017-12-01T13:04:28.192Z,2.90
2017-12-01T13:06:55.137Z,2.90
2017-12-01T13:09:22.121Z,2.90
2017-12-01T13:11:49.070Z,2.90
2017-12-01T13:14:15.967Z,2.90
2017-12-01T13:16:42.874Z,2.90
2017-12-01T13:19:11.351Z,2.80
2017-12-01T13:21:38.308Z,2.70
2017-12-01T13:24:05.264Z,2.80
2017-12-01T13:26:32.601Z,2.80
2017-12-01T13:28:59.456Z,2.80
2017-12-01T13:31:26.374Z,2.90
2017-12-01T13:33:53.264Z,2.90
2017-12-01T13:36:20.917Z,3.00
2017-12-01T13:38:47.961Z,3.00
2017-12-01T13:41:14.886Z,3.00
2017-12-01T13:43:41.830Z,3.00
2017-12-01T13:46:09.443Z,3.00
2017-12-01T13:48:36.391Z,3.00
2017-12-01T13:51:03.973Z,2.90
2017-12-01T13:53:30.933Z,3.00
2017-12-01T13:55:57.865Z,2.90
2017-12-01T13:58:24.864Z,2.90
2017-12-01T14:00:51.801Z,2.80
2017-12-01T14:03:19.456Z,2.80
2017-12-01T14:05:46.415Z,2.80
2017-12-01T14:08:13.597Z,2.90
2017-12-01T14:10:40.540Z,2.90
2017-12-01T14:13:08.003Z,2.90
2017-12-01T14:15:34.899Z,2.80
2017-12-01T14:18:01.768Z,2.90
2017-12-01T14:20:28.704Z,2.90
2017-12-01T14:22:55.693Z,2.90
2017-12-01T14:25:22.641Z,3.00
2017-12-01T14:27:50.331Z,3.00
2017-12-01T14:30:17.216Z,3.00
2017-12-01T14:32:44.929Z,2.90
2017-12-01T14:35:11.773Z,2.90
2017-12-01T14:37:38.656Z,2.90
2017-12-01T14:40:05.535Z,2.90
2017-12-01T14:42:32.408Z,2.90
2017-12-01T14:45:00.064Z,2.90
2017-12-01T14:47:26.963Z,2.80
2017-12-01T14:49:53.856Z,2.80
2017-12-01T14:52:21.467Z,2.80
2017-12-01T14:54:48.306Z,2.70
2017-12-01T14:57:21.009Z,2.80
2017-12-01T15:09:36.968Z,2.80
2017-12-01T15:12:03.781Z,2.70
2017-12-01T15:14:30.644Z,2.70
2017-12-01T15:16:58.214Z,2.80
2017-12-01T15:19:25.027Z,2.80
2017-12-01T15:21:51.855Z,2.70
2017-12-01T15:24:19.437Z,2.70
2017-12-01T15:26:47.040Z,2.70
2017-12-01T15:29:13.908Z,2.70
2017-12-01T15:31:40.764Z,2.70
2017-12-01T15:34:07.592Z,2.80
2017-12-01T15:36:35.140Z,2.60
2017-12-01T15:39:02.068Z,2.60
2017-12-01T15:41:28.950Z,2.70
2017-12-01T15:43:55.851Z,2.60
2017-12-01T15:46:22.764Z,2.60
2017-12-01T15:48:49.724Z,2.70
2017-12-01T15:51:17.556Z,2.70
2017-12-01T15:53:44.539Z,2.70
2017-12-01T15:56:12.613Z,2.80
2017-12-01T15:58:39.531Z,2.70
2017-12-01T16:01:06.514Z,2.70
2017-12-01T16:03:33.410Z,2.60
2017-12-01T16:06:01.080Z,2.50
2017-12-01T16:08:27.991Z,2.50
2017-12-01T16:10:54.937Z,2.50
2017-12-01T16:13:21.835Z,2.50
2017-12-01T16:15:48.754Z,2.50
2017-12-01T16:18:16.410Z,2.40
2017-12-01T16:20:44.724Z,2.40
2017-12-01T16:23:11.656Z,2.40
2017-12-01T16:25:38.591Z,2.50
2017-12-01T16:28:05.531Z,2.50
2017-12-01T16:30:32.507Z,2.50
2017-12-01T16:33:00.284Z,2.50
2017-12-01T16:35:26.626Z,2.50
2017-12-01T16:38:02.937Z,2.50
2017-12-01T16:40:29.979Z,2.50
2017-12-01T16:42:57.545Z,2.50
2017-12-01T16:45:30.499Z,2.50
2017-12-01T16:48:03.430Z,2.50
2017-12-01T16:50:31.427Z,2.50
2017-12-01T16:53:05.766Z,2.40
2017-12-01T16:55:33.500Z,2.40
2017-12-01T16:58:05.723Z,2.40
2017-12-01T17:00:37.879Z,2.40
2017-12-01T17:03:07.659Z,2.40
2017-12-01T17:05:35.393Z,2.50
2017-12-01T17:08:04.055Z,2.40
2017-12-01T17:10:30.988Z,2.40
2017-12-01T17:12:58.320Z,2.40
2017-12-01T17:15:30.439Z,2.40
2017-12-01T17:17:57.414Z,2.40
2017-12-01T17:20:24.948Z,2.40
2017-12-01T17:22:54.548Z,2.30
2017-12-01T17:25:21.545Z,2.30
2017-12-01T17:27:48.905Z,2.30
2017-12-01T17:30:16.860Z,2.30
2017-12-01T17:32:45.596Z,2.30
2017-12-01T17:35:17.961Z,2.30
2017-12-01T17:37:48.273Z,2.30
2017-12-01T17:40:16.569Z,2.30
2017-12-01T17:42:43.838Z,2.30
2017-12-01T17:45:10.737Z,2.30
2017-12-01T17:47:37.679Z,2.20
2017-12-01T17:50:08.417Z,2.30
2017-12-01T17:52:36.678Z,2.30
2017-12-01T17:55:03.944Z,2.40
2017-12-01T17:57:33.890Z,2.50
2017-12-01T18:00:06.007Z,2.50
2017-12-01T18:02:33.839Z,2.30
2017-12-01T18:05:00.816Z,2.30
2017-12-01T18:07:28.516Z,2.30
2017-12-01T18:09:55.963Z,2.30
2017-12-01T18:12:23.226Z,2.20
2017-12-01T18:14:51.218Z,2.10
2017-12-01T18:17:18.088Z,2.10
2017-12-01T18:19:45.918Z,2.10
2017-12-01T18:22:13.241Z,2.10
2017-12-01T18:24:41.115Z,2.10
2017-12-01T18:27:08.374Z,2.10
2017-12-01T18:29:41.223Z,2.20
2017-12-01T18:32:09.616Z,2.20
2017-12-01T18:34:36.612Z,2.20
2017-12-01T18:37:04.738Z,2.30
2017-12-01T18:39:37.566Z,2.20
2017-12-01T18:42:05.531Z,2.20
2017-12-01T18:44:44.830Z,2.20
2017-12-01T18:47:12.279Z,2.10
2017-12-01T18:49:40.441Z,2.10
2017-12-01T18:52:08.135Z,1.90
2017-12-01T18:54:37.672Z,2.00
2017-12-01T18:57:04.595Z,1.90
2017-12-01T18:59:36.972Z,1.90
2017-12-01T19:02:09.787Z,1.80
2017-12-01T19:04:38.419Z,1.70
2017-12-01T19:07:05.396Z,1.60
2017-12-01T19:09:34.581Z,1.50
2017-12-01T19:12:07.866Z,1.40
2017-12-01T19:14:35.799Z,1.30
2017-12-01T19:17:02.890Z,1.30
2017-12-01T19:19:30.775Z,1.30
2017-12-01T19:21:58.582Z,1.40
2017-12-01T19:24:25.988Z,1.50
2017-12-01T19:26:58.178Z,1.60
2017-12-01T19:29:26.041Z,1.50
2017-12-01T19:31:58.153Z,1.50
2017-12-01T19:34:25.078Z,1.60
2017-12-01T19:36:57.942Z,1.70
2017-12-01T19:39:25.255Z,1.70
2017-12-01T19:41:57.723Z,1.70
2017-12-01T19:44:29.773Z,1.60
2017-12-01T19:46:56.660Z,1.60
2017-12-01T19:49:23.805Z,1.20
2017-12-01T19:51:50.756Z,1.00
2017-12-01T19:54:23.397Z,0.90
2017-12-01T19:56:50.359Z,0.70
2017-12-01T19:59:21.530Z,0.80
2017-12-01T20:01:49.283Z,1.20
2017-12-01T20:04:16.203Z,1.20
2017-12-01T20:06:43.887Z,1.30
2017-12-01T20:09:11.500Z,1.20
2017-12-01T20:11:38.510Z,1.20
2017-12-01T20:14:05.412Z,0.70
2017-12-01T20:16:36.243Z,0.40
2017-12-01T20:19:03.861Z,0.40
2017-12-01T20:21:30.804Z,0.40
2017-12-01T20:23:57.774Z,0.50
2017-12-01T20:26:24.710Z,0.70
2017-12-01T20:28:52.435Z,1.00
2017-12-01T20:31:19.375Z,1.00
2017-12-01T20:33:46.284Z,1.10
2017-12-01T20:36:13.201Z,1.10
2017-12-01T20:38:40.682Z,1.20
2017-12-01T20:41:07.613Z,1.00
2017-12-01T20:43:34.584Z,0.60
2017-12-01T20:46:01.539Z,0.30
2017-12-01T20:48:28.502Z,0.10
2017-12-01T20:50:56.960Z,0.20
2017-12-01T20:53:24.160Z,0.20
2017-12-01T20:55:55.510Z,0.30
2017-12-01T20:58:23.602Z,0.10
2017-12-01T21:00:51.340Z,0.30
2017-12-01T21:03:18.298Z,0.30
2017-12-01T21:05:45.490Z,0.20
2017-12-01T21:08:12.933Z,0.40
2017-12-01T21:10:40.906Z,0.70
2017-12-01T21:13:09.128Z,0.60
2017-12-01T21:15:36.097Z,0.60
2017-12-01T21:18:03.069Z,0.30
2017-12-01T21:20:30.344Z,0.20
2017-12-01T21:22:57.304Z,0.20
2017-12-01T21:25:24.221Z,0.40
2017-12-01T21:27:51.199Z,0.70
2017-12-01T21:30:18.987Z,1.10
2017-12-01T21:32:46.671Z,1.10
2017-12-01T21:35:14.544Z,1.00
2017-12-01T21:37:41.560Z,1.00
2017-12-01T21:40:08.601Z,1.10
2017-12-01T21:42:35.644Z,1.50
2017-12-01T21:45:03.367Z,1.40
2017-12-01T21:47:30.285Z,1.30
2017-12-01T21:49:58.035Z,1.00
2017-12-01T21:52:24.920Z,0.90
2017-12-01T21:54:52.100Z,1.10
2017-12-01T21:57:19.079Z,1.40
2017-12-01T21:59:45.917Z,1.70
2017-12-01T22:02:12.762Z,1.60
2017-12-01T22:04:39.621Z,1.60
2017-12-01T22:07:06.494Z,2.00
2017-12-01T22:09:33.388Z,2.20
2017-12-01T22:12:00.212Z,2.00
2017-12-01T22:14:27.106Z,2.20
2017-12-01T22:16:54.761Z,2.50
2017-12-01T22:19:21.586Z,2.50
2017-12-01T22:21:48.486Z,1.90
2017-12-01T22:24:15.377Z,1.50
2017-12-01T22:26:42.275Z,1.80
2017-12-01T22:29:09.151Z,1.50
2017-12-01T22:31:35.988Z,1.10
2017-12-01T22:34:03.617Z,1.80
2017-12-01T22:36:31.424Z,1.80
2017-12-01T22:38:59.382Z,2.20
2017-12-01T22:41:27.025Z,1.60
2017-12-01T22:43:53.918Z,1.10
2017-12-01T22:46:20.828Z,0.90
2017-12-01T22:48:50.118Z,1.30
2017-12-01T22:51:17.843Z,1.80
2017-12-01T22:53:44.735Z,1.70
2017-12-01T22:56:11.593Z,1.80
2017-12-01T22:58:38.472Z,2.20
2017-12-01T23:01:05.347Z,2.30
2017-12-01T23:03:32.221Z,1.80
2017-12-01T23:05:59.130Z,1.40
2017-12-01T23:08:25.975Z,1.20
2017-12-01T23:10:52.812Z,0.80
2017-12-01T23:13:19.693Z,0.60
2017-12-01T23:15:46.542Z,0.50
2017-12-01T23:18:13.403Z,0.80
2017-12-01T23:20:40.269Z,0.80
2017-12-01T23:23:07.102Z,0.60
2017-12-01T23:25:34.739Z,0.30
2017-12-01T23:28:01.608Z,0.30
2017-12-01T23:30:28.466Z,0.30
2017-12-01T23:32:56.311Z,0.40
2017-12-01T23:35:23.156Z,0.40
2017-12-01T23:37:50.768Z,0.40
2017-12-01T23:40:17.638Z,0.40
2017-12-01T23:42:44.532Z,0.90
2017-12-01T23:45:11.425Z,1.10
2017-12-01T23:47:38.999Z,1.30
2017-12-01T23:50:05.824Z,1.30
2017-12-01T23:52:32.679Z,1.60
2017-12-01T23:54:59.576Z,1.80
2017-12-01T23:57:27.239Z,1.20
2017-12-01T23:59:54.058Z,1.20
